createdAt,value
2023-05-15T00:00:00.716Z,15.47
2023-05-15T00:02:28.142Z,13.57
2023-05-15T00:04:55.410Z,13.23
2023-05-15T00:07:22.547Z,13.97
2023-05-15T00:09:49.641Z,15.53
2023-05-15T00:12:17.165Z,10.33
2023-05-15T00:14:44.209Z,15.13
2023-05-15T00:17:12.555Z,12.07
2023-05-15T00:19:39.783Z,12.00
2023-05-15T00:22:06.936Z,12.30
2023-05-15T00:24:34.433Z,10.27
2023-05-15T00:27:02.068Z,11.33
2023-05-15T00:29:30.552Z,11.87
2023-05-15T00:31:57.634Z,11.63
2023-05-15T00:34:25.949Z,11.67
2023-05-15T00:36:53.032Z,12.00
2023-05-15T00:39:20.132Z,12.73
2023-05-15T00:41:50.051Z,14.33
2023-05-15T00:44:19.264Z,11.80
2023-05-15T00:46:47.098Z,11.37
2023-05-15T00:49:15.292Z,11.10
2023-05-15T00:51:42.669Z,9.97
2023-05-15T00:54:11.519Z,9.47
2023-05-15T00:56:39.328Z,12.33
2023-05-15T00:59:07.744Z,13.03
2023-05-15T01:01:35.281Z,11.97
2023-05-15T01:04:03.284Z,12.33
2023-05-15T01:06:31.601Z,14.23
2023-05-15T01:09:04.588Z,13.53
2023-05-15T01:11:36.456Z,11.57
2023-05-15T01:14:06.614Z,14.87
2023-05-15T01:16:34.285Z,9.93
2023-05-15T01:19:03.639Z,11.90
2023-05-15T01:22:13.825Z,11.37
2023-05-15T01:25:27.155Z,9.20
2023-05-15T01:28:02.885Z,15.83
2023-05-15T01:30:34.504Z,11.90
2023-05-15T01:33:17.690Z,12.30
2023-05-15T01:35:51.180Z,9.10
2023-05-15T01:38:55.874Z,9.10
2023-05-15T01:41:51.153Z,12.23
2023-05-15T01:44:30.485Z,11.80
2023-05-15T01:47:10.438Z,11.07
2023-05-15T01:49:38.998Z,29.53
2023-05-15T01:52:14.794Z,13.93
2023-05-15T01:54:42.609Z,10.60
2023-05-15T01:57:11.692Z,12.47
2023-05-15T01:59:39.609Z,13.60
2023-05-15T02:02:07.323Z,16.90
2023-05-15T02:04:34.678Z,14.93
2023-05-15T02:07:03.150Z,15.73
2023-05-15T02:09:31.329Z,12.53
2023-05-15T02:12:00.227Z,13.87
2023-05-15T02:14:29.760Z,10.03
2023-05-15T02:16:57.103Z,13.10
2023-05-15T02:19:24.659Z,12.93
2023-05-15T02:21:51.789Z,8.67
2023-05-15T02:24:18.944Z,11.07
2023-05-15T02:27:19.631Z,10.93
2023-05-15T02:30:10.587Z,11.30
2023-05-15T02:33:18.698Z,15.03
2023-05-15T02:36:21.918Z,12.90
2023-05-15T02:38:53.751Z,9.50
2023-05-15T02:41:23.217Z,15.20
2023-05-15T02:43:51.840Z,12.60
2023-05-15T02:46:22.248Z,13.63
2023-05-15T02:48:50.726Z,18.40
2023-05-15T02:51:17.986Z,13.53
2023-05-15T02:53:45.067Z,11.53
2023-05-15T02:56:12.219Z,11.93
2023-05-15T02:58:39.663Z,14.50
2023-05-15T03:01:07.118Z,12.07
2023-05-15T03:03:34.369Z,15.10
2023-05-15T03:06:01.622Z,11.77
2023-05-15T03:08:29.271Z,10.80
2023-05-15T03:10:56.386Z,11.07
2023-05-15T03:13:23.522Z,14.50
2023-05-15T03:15:50.670Z,18.07
2023-05-15T03:18:19.134Z,14.67
2023-05-15T03:20:49.140Z,16.57
2023-05-15T03:23:16.320Z,12.80
2023-05-15T03:25:43.475Z,13.73
2023-05-15T03:28:10.761Z,13.20
2023-05-15T03:30:37.788Z,14.73
2023-05-15T03:33:05.020Z,14.77
2023-05-15T03:35:32.553Z,11.73
2023-05-15T03:37:59.752Z,13.80
2023-05-15T03:40:26.834Z,13.47
2023-05-15T03:42:53.976Z,16.63
2023-05-15T03:45:21.511Z,12.47
2023-05-15T03:47:49.227Z,14.63
2023-05-15T03:50:16.616Z,13.47
2023-05-15T03:52:43.903Z,12.40
2023-05-15T03:55:11.225Z,12.17
2023-05-15T03:57:41.788Z,14.93
2023-05-15T04:00:11.191Z,11.87
2023-05-15T04:02:41.308Z,12.77
2023-05-15T04:05:09.376Z,13.07
2023-05-15T04:07:37.699Z,13.77
2023-05-15T04:10:05.645Z,15.00
2023-05-15T04:12:34.665Z,13.07
2023-05-15T04:15:31.210Z,14.27
2023-05-15T04:17:58.480Z,10.70
2023-05-15T04:20:26.109Z,12.23
2023-05-15T04:22:53.846Z,12.43
2023-05-15T04:25:21.028Z,14.37
2023-05-15T04:27:49.383Z,15.07
2023-05-15T04:30:16.998Z,16.20
2023-05-15T04:32:44.100Z,12.77
2023-05-15T04:35:13.515Z,11.47
2023-05-15T04:37:41.824Z,12.23
2023-05-15T04:40:09.835Z,10.37
2023-05-15T04:42:39.170Z,9.37
2023-05-15T04:45:08.022Z,11.43
2023-05-15T04:47:35.678Z,11.73
2023-05-15T04:50:03.093Z,10.90
2023-05-15T04:52:30.263Z,12.47
2023-05-15T04:54:57.385Z,10.27
2023-05-15T04:57:25.679Z,10.00
2023-05-15T04:59:52.989Z,11.33
2023-05-15T05:02:24.091Z,12.60
2023-05-15T05:04:51.367Z,11.27
2023-05-15T05:07:18.450Z,13.03
2023-05-15T05:09:45.769Z,12.83
2023-05-15T05:12:13.016Z,13.10
2023-05-15T05:14:42.332Z,16.53
2023-05-15T05:17:09.647Z,14.50
2023-05-15T05:19:36.799Z,14.60
2023-05-15T05:22:07.762Z,13.60
2023-05-15T05:24:38.264Z,15.37
2023-05-15T05:27:06.086Z,13.20
2023-05-15T05:29:33.167Z,11.40
2023-05-15T05:32:00.780Z,13.03
2023-05-15T05:34:28.087Z,12.87
2023-05-15T05:36:55.413Z,10.70
2023-05-15T05:39:22.445Z,11.67
2023-05-15T05:41:49.592Z,12.07
2023-05-15T05:44:16.740Z,14.43
2023-05-15T05:46:45.505Z,14.73
2023-05-15T05:49:12.764Z,15.70
2023-05-15T05:51:39.920Z,13.93
2023-05-15T05:54:07.396Z,10.97
2023-05-15T05:56:34.635Z,13.40
2023-05-15T05:59:02.226Z,10.63
2023-05-15T06:01:29.879Z,12.80
2023-05-15T06:03:57.662Z,10.30
2023-05-15T06:06:25.196Z,12.63
2023-05-15T06:08:54.881Z,10.97
2023-05-15T06:11:25.382Z,9.60
2023-05-15T06:13:52.824Z,10.93
2023-05-15T06:16:20.164Z,11.90
2023-05-15T06:18:47.530Z,10.20
2023-05-15T06:21:14.701Z,13.67
2023-05-15T06:23:41.852Z,15.87
2023-05-15T06:26:09.045Z,11.17
2023-05-15T06:28:36.072Z,15.30
2023-05-15T06:31:03.623Z,14.67
2023-05-15T06:33:31.322Z,11.50
2023-05-15T06:35:58.444Z,12.90
2023-05-15T06:38:25.542Z,12.80
2023-05-15T06:40:52.682Z,12.93
2023-05-15T06:43:19.724Z,10.50
2023-05-15T06:45:46.832Z,11.90
2023-05-15T06:48:14.021Z,11.93
2023-05-15T06:50:41.215Z,11.10
2023-05-15T06:53:08.507Z,11.70
2023-05-15T06:55:36.610Z,16.13
2023-05-15T06:58:04.473Z,11.60
2023-05-15T07:00:31.709Z,13.93
2023-05-15T07:02:58.839Z,12.60
2023-05-15T07:05:26.233Z,14.17
2023-05-15T07:07:53.423Z,11.90
2023-05-15T07:10:20.898Z,14.17
2023-05-15T07:12:47.961Z,17.20
2023-05-15T07:15:15.016Z,14.73
2023-05-15T07:17:42.205Z,14.20
2023-05-15T07:20:09.922Z,13.80
2023-05-15T07:22:44.481Z,16.93
2023-05-15T07:25:19.466Z,12.90
2023-05-15T07:27:46.497Z,10.93
2023-05-15T07:30:14.233Z,15.77
2023-05-15T07:32:41.552Z,12.97
2023-05-15T07:35:09.169Z,12.77
2023-05-15T07:37:36.495Z,16.33
2023-05-15T07:40:04.406Z,12.53
2023-05-15T07:42:31.457Z,17.77
2023-05-15T07:44:58.521Z,14.70
2023-05-15T07:47:25.838Z,12.73
2023-05-15T07:49:52.947Z,12.67
2023-05-15T07:52:20.493Z,9.43
2023-05-15T07:54:47.596Z,10.97
2023-05-15T07:57:15.644Z,10.33
2023-05-15T07:59:43.127Z,9.97
2023-05-15T08:02:10.308Z,12.43
2023-05-15T08:04:37.425Z,9.93
2023-05-15T08:07:04.768Z,9.23
2023-05-15T08:09:32.078Z,10.23
2023-05-15T08:12:21.132Z,10.50
2023-05-15T08:14:53.488Z,9.40
2023-05-15T08:17:21.809Z,8.53
2023-05-15T08:19:49.317Z,8.13
2023-05-15T08:22:17.104Z,7.97
2023-05-15T08:24:44.903Z,10.17
2023-05-15T08:27:12.011Z,9.53
2023-05-15T08:29:40.011Z,11.97
2023-05-15T08:32:09.112Z,8.13
2023-05-15T08:34:36.232Z,13.60
2023-05-15T08:37:05.044Z,13.43
2023-05-15T08:39:32.373Z,10.73
2023-05-15T08:42:45.449Z,13.53
2023-05-15T08:45:15.800Z,7.83
2023-05-15T08:47:44.226Z,12.83
2023-05-15T08:50:14.693Z,10.00
2023-05-15T08:52:49.630Z,10.07
2023-05-15T08:55:17.516Z,10.20
2023-05-15T08:57:46.276Z,11.97
2023-05-15T09:00:14.782Z,10.20
2023-05-15T09:02:43.182Z,11.17
2023-05-15T09:05:10.951Z,10.00
2023-05-15T09:07:42.585Z,10.27
2023-05-15T09:10:10.451Z,8.67
2023-05-15T09:12:42.061Z,9.73
2023-05-15T09:15:16.031Z,8.83
2023-05-15T09:17:43.656Z,11.07
2023-05-15T09:20:33.180Z,7.30
2023-05-15T09:23:02.509Z,6.90
2023-05-15T09:25:56.967Z,11.03
2023-05-15T09:28:32.296Z,8.67
2023-05-15T09:31:04.144Z,7.77
2023-05-15T09:33:33.833Z,8.30
2023-05-15T09:36:02.059Z,6.33
2023-05-15T09:38:30.931Z,6.20
2023-05-15T09:41:05.583Z,8.10
2023-05-15T09:43:40.746Z,7.43
2023-05-15T09:46:08.778Z,8.73
2023-05-15T09:48:36.198Z,10.33
2023-05-15T09:51:05.853Z,8.70
2023-05-15T09:53:33.163Z,6.67
2023-05-15T09:56:00.263Z,7.43
2023-05-15T09:58:27.394Z,7.97
2023-05-15T10:00:54.517Z,9.43
2023-05-15T10:03:22.001Z,8.97
2023-05-15T10:05:49.623Z,7.63
2023-05-15T10:08:26.263Z,9.60
2023-05-15T10:10:54.442Z,9.30
2023-05-15T10:13:22.739Z,8.23
2023-05-15T10:15:50.562Z,9.60
2023-05-15T10:18:20.575Z,8.90
2023-05-15T10:20:48.240Z,8.03
2023-05-15T10:23:19.119Z,7.43
2023-05-15T10:25:55.992Z,9.17
2023-05-15T10:28:23.781Z,10.03
2023-05-15T10:30:52.221Z,8.77
2023-05-15T10:33:20.883Z,6.60
2023-05-15T10:35:49.092Z,7.63
2023-05-15T10:38:17.275Z,5.83
2023-05-15T10:40:45.200Z,10.40
2023-05-15T10:43:14.159Z,6.63
2023-05-15T10:45:42.034Z,8.50
2023-05-15T10:48:12.434Z,7.37
2023-05-15T10:50:39.805Z,7.03
2023-05-15T10:53:09.132Z,9.37
2023-05-15T10:55:37.127Z,9.10
2023-05-15T10:58:10.104Z,8.37
2023-05-15T11:00:43.281Z,8.30
2023-05-15T11:03:45.014Z,6.00
2023-05-15T11:06:15.807Z,8.50
2023-05-15T11:08:45.191Z,8.83
2023-05-15T11:11:56.003Z,9.03
2023-05-15T11:14:35.959Z,7.73
2023-05-15T11:17:08.624Z,7.00
2023-05-15T11:20:09.410Z,6.60
2023-05-15T11:22:36.697Z,9.17
2023-05-15T11:25:09.616Z,9.37
2023-05-15T11:27:41.899Z,7.10
2023-05-15T11:30:22.929Z,8.57
2023-05-15T11:33:01.555Z,7.37
2023-05-15T11:35:47.120Z,6.90
2023-05-15T11:38:26.936Z,6.77
2023-05-15T11:41:03.570Z,6.40
2023-05-15T11:43:32.381Z,7.97
2023-05-15T11:46:08.206Z,6.23
2023-05-15T11:48:49.731Z,11.10
2023-05-15T11:51:20.174Z,7.63
2023-05-15T11:53:49.419Z,7.87
2023-05-15T11:56:24.872Z,8.90
2023-05-15T11:58:57.606Z,6.50
2023-05-15T12:01:25.093Z,5.40
2023-05-15T12:03:54.342Z,4.43
2023-05-15T12:06:22.752Z,4.87
2023-05-15T12:08:53.524Z,3.93
2023-05-15T12:11:24.847Z,5.40
2023-05-15T12:13:54.286Z,6.73
2023-05-15T12:16:28.572Z,3.80
2023-05-15T12:18:58.964Z,4.63
2023-05-15T12:21:29.033Z,5.23
2023-05-15T12:26:27.600Z,3.67
2023-05-15T12:28:55.716Z,4.53
2023-05-15T12:31:23.112Z,7.50
2023-05-15T12:33:50.455Z,5.40
2023-05-15T12:36:21.159Z,4.83
2023-05-15T12:38:49.507Z,5.13
2023-05-15T12:41:16.986Z,6.40
2023-05-15T12:43:44.128Z,4.20
2023-05-15T12:46:14.136Z,4.10
2023-05-15T12:48:41.323Z,3.37
2023-05-15T12:51:09.035Z,5.00
2023-05-15T12:53:39.664Z,4.83
2023-05-15T12:56:08.998Z,6.47
2023-05-15T12:58:37.664Z,3.17
2023-05-15T13:01:05.025Z,3.40
2023-05-15T13:03:32.985Z,4.10
2023-05-15T13:06:03.509Z,3.57
2023-05-15T13:08:30.605Z,3.50
2023-05-15T13:10:59.575Z,3.20
2023-05-15T13:14:08.446Z,4.60
2023-05-15T13:16:36.978Z,2.10
2023-05-15T13:19:04.642Z,3.07
2023-05-15T13:21:31.950Z,1.93
2023-05-15T13:23:59.089Z,3.07
2023-05-15T13:26:26.499Z,1.63
2023-05-15T13:28:53.546Z,2.10
2023-05-15T13:31:21.143Z,1.60
2023-05-15T13:33:48.743Z,1.73
2023-05-15T13:36:15.880Z,2.40
2023-05-15T13:38:43.164Z,2.90
2023-05-15T13:41:10.463Z,1.87
2023-05-15T13:43:37.727Z,2.57
2023-05-15T13:46:05.381Z,2.30
2023-05-15T13:48:32.575Z,1.80
2023-05-15T13:50:59.678Z,3.77
2023-05-15T13:53:27.290Z,2.20
2023-05-15T13:55:54.665Z,4.80
2023-05-15T13:58:21.824Z,2.10
2023-05-15T14:00:49.303Z,1.57
2023-05-15T14:03:16.484Z,1.50
2023-05-15T14:05:43.623Z,4.13
2023-05-15T14:08:11.147Z,3.53
2023-05-15T14:10:38.387Z,1.70
2023-05-15T14:13:05.539Z,2.27
2023-05-15T14:15:32.667Z,1.53
2023-05-15T14:17:59.760Z,2.87
2023-05-15T14:20:27.491Z,1.50
2023-05-15T14:22:54.731Z,1.40
2023-05-15T14:25:21.875Z,2.93
2023-05-15T14:27:48.960Z,2.00
2023-05-15T14:30:16.142Z,1.80
2023-05-15T14:32:43.199Z,2.00
2023-05-15T14:35:10.403Z,2.23
2023-05-15T14:37:37.756Z,12.40
2023-05-15T14:40:07.002Z,1.70
2023-05-15T14:42:34.048Z,3.97
2023-05-15T14:45:01.351Z,3.57
2023-05-15T14:47:29.974Z,4.50
2023-05-15T14:49:57.137Z,5.33
2023-05-15T14:52:24.226Z,4.57
2023-05-15T14:55:04.714Z,1.97
2023-05-15T14:57:35.502Z,2.80
2023-05-15T15:00:02.729Z,3.53
2023-05-15T15:02:29.900Z,3.17
2023-05-15T15:04:58.020Z,5.10
2023-05-15T15:07:30.778Z,11.80
2023-05-15T15:09:57.873Z,2.93
2023-05-15T15:12:24.966Z,7.67
2023-05-15T15:14:52.083Z,5.63
2023-05-15T15:17:19.191Z,7.90
2023-05-15T15:19:46.313Z,5.67
2023-05-15T15:22:13.333Z,5.53
2023-05-15T15:24:40.408Z,7.37
2023-05-15T15:27:07.511Z,6.63
2023-05-15T15:29:34.733Z,7.17
2023-05-15T15:32:01.870Z,6.80
2023-05-15T15:34:29.009Z,2.67
2023-05-15T15:36:56.395Z,4.43
2023-05-15T15:39:23.669Z,5.30
2023-05-15T15:41:51.118Z,3.27
2023-05-15T15:44:18.583Z,6.53
2023-05-15T15:46:46.059Z,6.67
2023-05-15T15:49:13.724Z,9.27
2023-05-15T15:51:44.386Z,5.60
2023-05-15T15:54:11.878Z,5.03
2023-05-15T15:56:40.349Z,2.93
2023-05-15T15:59:07.841Z,4.50
2023-05-15T16:01:35.370Z,5.60
2023-05-15T16:04:02.999Z,6.70
2023-05-15T16:06:30.471Z,3.13
2023-05-15T16:08:57.907Z,5.53
2023-05-15T16:11:26.743Z,3.33
2023-05-15T16:13:54.445Z,3.17
2023-05-15T16:16:22.105Z,3.53
2023-05-15T16:18:49.813Z,3.60
2023-05-15T16:21:17.268Z,4.30
2023-05-15T16:23:45.544Z,2.60
2023-05-15T16:26:13.231Z,3.53
2023-05-15T16:28:40.899Z,6.37
2023-05-15T16:31:08.607Z,3.00
2023-05-15T16:33:36.450Z,2.60
2023-05-15T16:36:05.333Z,2.57
2023-05-15T16:38:32.998Z,3.00
2023-05-15T16:41:00.423Z,3.30
2023-05-15T16:43:28.429Z,3.03
2023-05-15T16:45:55.894Z,3.53
2023-05-15T16:48:26.379Z,2.50
2023-05-15T16:50:53.838Z,4.57
2023-05-15T16:53:21.396Z,2.73
2023-05-15T16:55:48.918Z,2.30
2023-05-15T16:58:17.230Z,2.80
2023-05-15T17:00:44.663Z,4.23
2023-05-15T17:03:13.013Z,2.50
2023-05-15T17:05:41.209Z,3.30
2023-05-15T17:08:08.886Z,2.77
2023-05-15T17:10:36.356Z,3.47
2023-05-15T17:13:04.715Z,3.03
2023-05-15T17:15:32.162Z,2.60
2023-05-15T17:17:59.753Z,2.77
2023-05-15T17:20:27.226Z,2.93
2023-05-15T17:22:54.713Z,4.33
2023-05-15T17:25:22.263Z,4.40
2023-05-15T17:27:49.947Z,3.10
2023-05-15T17:30:17.763Z,3.20
2023-05-15T17:32:45.296Z,2.63
2023-05-15T17:35:12.797Z,2.43
2023-05-15T17:37:40.580Z,5.23
2023-05-15T17:40:08.412Z,2.20
2023-05-15T17:42:36.275Z,2.87
2023-05-15T17:45:03.896Z,2.70
2023-05-15T17:47:31.400Z,2.47
2023-05-15T17:49:58.777Z,2.60
2023-05-15T17:52:26.478Z,2.27
2023-05-15T17:54:53.905Z,3.10
2023-05-15T17:57:21.432Z,3.97
2023-05-15T17:59:48.833Z,3.90
2023-05-15T18:02:16.438Z,3.73
2023-05-15T18:04:44.258Z,4.33
2023-05-15T18:07:11.951Z,4.57
2023-05-15T18:09:39.513Z,6.40
2023-05-15T18:12:07.440Z,3.67
2023-05-15T18:14:34.876Z,6.37
2023-05-15T18:17:02.394Z,5.10
2023-05-15T18:19:29.847Z,3.30
2023-05-15T18:21:57.596Z,3.63
2023-05-15T18:24:25.132Z,7.43
2023-05-15T18:26:52.586Z,4.23
2023-05-15T18:29:20.201Z,3.90
2023-05-15T18:31:47.686Z,6.17
2023-05-15T18:34:15.116Z,7.33
2023-05-15T18:36:42.568Z,5.30
2023-05-15T18:46:04.593Z,7.17
2023-05-15T18:48:32.164Z,5.33
2023-05-15T18:50:59.562Z,5.73
2023-05-15T18:53:27.222Z,4.97
2023-05-15T18:55:54.676Z,8.43
2023-05-15T18:58:22.506Z,6.10
2023-05-15T19:00:50.021Z,6.93
2023-05-15T19:03:18.882Z,7.37
2023-05-15T19:05:46.628Z,8.20
2023-05-15T19:08:14.349Z,8.60
2023-05-15T19:10:41.724Z,5.97
2023-05-15T19:13:09.358Z,5.47
2023-05-15T19:15:36.822Z,6.87
2023-05-15T19:18:04.387Z,6.30
2023-05-15T19:20:31.788Z,6.27
2023-05-15T19:22:59.467Z,5.43
2023-05-15T19:25:26.991Z,6.28
2023-05-15T19:27:56.186Z,9.27
2023-05-15T19:30:23.768Z,7.07
2023-05-15T19:32:51.400Z,6.33
2023-05-15T19:35:18.882Z,6.57
2023-05-15T19:37:46.445Z,7.00
2023-05-15T19:40:14.113Z,8.60
2023-05-15T19:42:41.584Z,6.97
2023-05-15T19:45:09.456Z,7.50
2023-05-15T19:47:37.367Z,7.07
2023-05-15T19:50:05.145Z,5.63
2023-05-15T19:52:32.715Z,8.23
2023-05-15T19:55:00.179Z,6.93
2023-05-15T19:57:27.814Z,8.03
2023-05-15T19:59:55.248Z,10.67
2023-05-15T20:02:23.294Z,6.43
2023-05-15T20:04:51.354Z,8.87
2023-05-15T20:07:18.859Z,9.90
2023-05-15T20:09:46.991Z,7.83
2023-05-15T20:12:14.887Z,8.77
2023-05-15T20:14:42.498Z,11.67
2023-05-15T20:17:09.916Z,11.90
2023-05-15T20:19:37.310Z,7.70
2023-05-15T20:22:04.931Z,8.13
2023-05-15T20:24:32.371Z,9.90
2023-05-15T20:27:00.020Z,12.63
2023-05-15T20:29:27.509Z,7.87
2023-05-15T20:31:55.400Z,10.00
2023-05-15T20:34:23.415Z,9.40
2023-05-15T20:36:55.004Z,11.70
2023-05-15T20:39:22.517Z,12.00
2023-05-15T20:41:50.218Z,9.77
2023-05-15T20:44:17.763Z,13.27
2023-05-15T20:46:45.215Z,15.27
2023-05-15T20:49:12.775Z,12.43
2023-05-15T20:51:41.815Z,11.93
2023-05-15T20:54:09.510Z,14.60
2023-05-15T20:56:36.950Z,11.67
2023-05-15T20:59:04.445Z,13.00
2023-05-15T21:01:31.853Z,12.77
2023-05-15T21:03:59.528Z,11.03
2023-05-15T21:06:27.032Z,12.50
2023-05-15T21:08:54.630Z,11.93
2023-05-15T21:11:22.044Z,10.33
2023-05-15T21:13:49.660Z,12.80
2023-05-15T21:16:17.135Z,13.20
2023-05-15T21:18:44.758Z,12.20
2023-05-15T21:21:12.398Z,13.97
2023-05-15T21:23:39.886Z,14.17
2023-05-15T21:26:07.341Z,11.60
2023-05-15T21:28:35.376Z,12.70
2023-05-15T21:31:09.807Z,14.87
2023-05-15T21:33:37.871Z,13.07
2023-05-15T21:36:05.933Z,11.63
2023-05-15T21:38:33.514Z,16.40
2023-05-15T21:41:01.677Z,16.57
2023-05-15T21:43:29.306Z,16.77
2023-05-15T21:45:56.774Z,13.57
2023-05-15T21:48:24.316Z,17.70
2023-05-15T21:50:52.586Z,12.07
2023-05-15T21:53:20.235Z,13.00
2023-05-15T21:55:48.447Z,12.00
2023-05-15T21:58:16.192Z,15.37
2023-05-15T22:00:43.600Z,12.37
2023-05-15T22:03:11.294Z,13.30
2023-05-15T22:05:38.886Z,14.70
2023-05-15T22:08:06.397Z,15.90
2023-05-15T22:10:33.911Z,17.80
2023-05-15T22:13:03.465Z,14.93
2023-05-15T22:15:31.115Z,15.60
2023-05-15T22:17:59.364Z,17.13
2023-05-15T22:20:27.121Z,14.57
2023-05-15T22:22:54.753Z,15.03
2023-05-15T22:25:22.266Z,19.40
2023-05-15T22:27:49.994Z,18.47
2023-05-15T22:30:17.476Z,14.77
2023-05-15T22:32:45.373Z,17.37
2023-05-15T22:35:13.374Z,15.67
2023-05-15T22:37:42.094Z,17.10
2023-05-15T22:40:12.494Z,16.77
2023-05-15T22:42:40.004Z,19.97
2023-05-15T22:45:07.912Z,17.37
2023-05-15T22:47:35.759Z,15.77
2023-05-15T22:50:03.233Z,20.13
2023-05-15T22:52:30.720Z,18.13
2023-05-15T22:54:58.139Z,17.97
2023-05-15T22:57:26.915Z,15.00
2023-05-15T22:59:54.346Z,14.13
2023-05-15T23:02:21.855Z,17.57
2023-05-15T23:04:49.324Z,21.93
2023-05-15T23:07:17.418Z,20.47
2023-05-15T23:09:44.951Z,18.53
2023-05-15T23:12:12.449Z,17.63
2023-05-15T23:14:39.901Z,19.17
2023-05-15T23:17:07.453Z,19.17
2023-05-15T23:19:34.925Z,17.13
2023-05-15T23:22:02.374Z,20.10
2023-05-15T23:24:29.780Z,24.87
2023-05-15T23:26:57.654Z,26.40
2023-05-15T23:29:25.092Z,24.80
2023-05-15T23:31:52.962Z,24.53
2023-05-15T23:34:20.669Z,20.40
2023-05-15T23:36:48.184Z,22.63
2023-05-15T23:39:16.509Z,25.13
2023-05-15T23:41:44.098Z,21.17
2023-05-15T23:44:11.587Z,25.33
2023-05-15T23:46:39.209Z,21.27
2023-05-15T23:49:06.670Z,20.87
2023-05-15T23:51:38.315Z,20.43
2023-05-15T23:54:05.783Z,18.53
2023-05-15T23:56:33.250Z,22.53
2023-05-15T23:59:00.938Z,18.73
